Time;durP1;ratioP1;P1;durP2;ratioP2;P2;SDS_P1;SDS_P2;PMS_P1;PMS_P2;Temp;Humidity;BMP_temperature;BMP_pressure;BME280_temperature;BME280_humidity;BME280_pressure;Samples;Min_cycle;Max_cycle;Signal;HPM_P1;HPM_P2
2021/05/01 00:00:49;;;;;;;32.43;17.53;;;;;;;10.08;57.72;98586.98;125520;1104;103077;-71
2021/05/01 00:03:18;;;;;;;28.93;16.07;;;;;;;10.06;57.91;98590.73;125522;1104;102979;-71
2021/05/01 00:05:45;;;;;;;33.70;16.90;;;;;;;10.03;57.96;98591.80;125535;1104;103008;-71
2021/05/01 00:08:13;;;;;;;30.03;16.73;;;;;;;10.00;57.92;98591.21;125461;1104;103110;-71
2021/05/01 00:10:41;;;;;;;29.70;16.77;;;;;;;9.97;58.07;98594.97;125712;1096;103059;-70
2021/05/01 00:13:08;;;;;;;30.73;17.07;;;;;;;9.95;57.93;98589.76;125642;1104;103011;-72
2021/05/01 00:15:36;;;;;;;30.83;16.50;;;;;;;9.94;57.83;98592.55;125580;1096;103008;-70
2021/05/01 00:18:06;;;;;;;32.00;16.20;;;;;;;9.91;58.07;98588.30;125528;1096;103084;-71
2021/05/01 00:20:34;;;;;;;31.60;17.20;;;;;;;9.89;57.94;98587.58;125571;1104;103080;-70
2021/05/01 00:23:01;;;;;;;31.10;17.03;;;;;;;9.87;58.07;98588.67;125600;1104;103138;-71
2021/05/01 00:25:28;;;;;;;30.40;16.17;;;;;;;9.86;57.58;98584.32;125596;1104;102984;-72
2021/05/01 00:27:56;;;;;;;34.57;16.60;;;;;;;9.83;58.08;98578.28;125812;1104;103056;-71
2021/05/01 00:30:24;;;;;;;29.25;16.00;;;;;;;9.82;58.09;98578.38;125599;1104;103059;-72
2021/05/01 00:32:52;;;;;;;29.57;15.73;;;;;;;9.80;58.13;98590.94;127634;1104;102018;-71
2021/05/01 00:35:19;;;;;;;29.07;16.07;;;;;;;9.79;58.02;98590.11;127624;1104;101074;-71
2021/05/01 00:37:46;;;;;;;31.40;16.53;;;;;;;9.77;58.28;98592.03;127665;1104;101010;-71
2021/05/01 00:40:14;;;;;;;30.87;15.57;;;;;;;9.77;58.02;98597.34;127663;1104;100991;-71
2021/05/01 00:42:42;;;;;;;31.47;16.67;;;;;;;9.76;58.06;98594.81;127697;1104;100921;-72
2021/05/01 00:45:10;;;;;;;31.13;16.63;;;;;;;9.76;58.09;98597.47;127665;1104;101257;-72
2021/05/01 00:47:37;;;;;;;30.30;15.93;;;;;;;9.76;57.97;98602.79;126414;1104;102975;-71
2021/05/01 00:50:09;;;;;;;31.47;16.53;;;;;;;9.70;57.90;98605.91;125479;1104;103052;-71
2021/05/01 00:52:37;;;;;;;29.60;15.23;;;;;;;9.69;58.20;98613.02;125599;1096;103091;-71
2021/05/01 00:55:10;;;;;;;27.53;14.80;;;;;;;9.68;58.09;98613.98;126333;1104;103016;-70
2021/05/01 00:57:41;;;;;;;32.65;16.20;;;;;;;9.67;58.01;98614.94;125518;1096;103010;-71
2021/05/01 01:00:43;;;;;;;27.87;15.83;;;;;;;9.66;58.26;98610.59;125558;1096;102990;-71
2021/05/01 01:03:11;;;;;;;33.10;17.40;;;;;;;9.63;58.17;98609.03;125549;1096;103435;-70
2021/05/01 01:05:38;;;;;;;29.27;15.50;;;;;;;9.62;58.00;98607.34;125687;1104;103128;-71
2021/05/01 01:08:06;;;;;;;30.93;16.70;;;;;;;9.59;58.37;98609.36;125622;1096;103064;-70
2021/05/01 01:10:34;;;;;;;26.97;15.60;;;;;;;9.57;58.02;98606.84;125526;1104;103112;-70
2021/05/01 01:13:01;;;;;;;27.20;15.47;;;;;;;9.53;58.29;98606.23;125506;1104;103055;-71
2021/05/01 01:15:33;;;;;;;31.13;16.43;;;;;;;9.51;58.24;98605.50;125636;1096;102984;-70
2021/05/01 01:18:01;;;;;;;27.23;15.80;;;;;;;9.48;58.42;98602.22;125522;1096;103082;-73
2021/05/01 01:20:29;;;;;;;27.90;15.60;;;;;;;9.43;58.28;98599.92;125558;1096;103230;-72
2021/05/01 01:22:57;;;;;;;27.83;15.40;;;;;;;9.40;58.42;98602.81;125488;1104;103125;-72
2021/05/01 01:25:25;;;;;;;29.75;15.85;;;;;;;9.37;58.52;98603.86;126398;1104;103090;-71
2021/05/01 01:27:52;;;;;;;27.10;16.00;;;;;;;9.35;58.46;98605.82;125602;1104;103271;-71
2021/05/01 01:30:28;;;;;;;29.83;16.90;;;;;;;9.33;58.30;98606.88;125556;1104;103091;-71
2021/05/01 01:32:56;;;;;;;29.43;17.00;;;;;;;9.32;58.54;98605.19;125502;1104;102987;-71
2021/05/01 01:35:27;;;;;;;31.60;17.13;;;;;;;9.28;58.36;98604.58;125562;1104;103155;-70
2021/05/01 01:37:59;;;;;;;27.80;16.00;;;;;;;9.27;58.48;98599.38;125473;1096;103016;-70
2021/05/01 01:40:27;;;;;;;30.93;16.97;;;;;;;9.22;58.60;98602.38;125513;1104;103115;-71
2021/05/01 01:42:54;;;;;;;29.00;16.57;;;;;;;9.19;58.36;98608.75;125446;1096;103075;-71
2021/05/01 01:45:27;;;;;;;28.70;16.10;;;;;;;9.17;58.55;98605.36;127624;1104;100763;-71
2021/05/01 01:47:56;;;;;;;27.67;16.30;;;;;;;9.14;58.27;98589.70;127674;1104;101698;-72
2021/05/01 01:50:25;;;;;;;26.97;16.17;;;;;;;9.13;58.34;98589.80;125618;1096;103029;-72
2021/05/01 01:52:54;;;;;;;29.57;17.07;;;;;;;9.12;58.23;98588.97;125479;1104;103110;-72
2021/05/01 01:55:26;;;;;;;30.47;17.17;;;;;;;9.13;58.18;98582.70;127048;1104;103137;-71
2021/05/01 01:57:57;;;;;;;28.67;16.27;;;;;;;9.12;58.72;98580.14;125565;1104;103579;-72
2021/05/01 02:00:31;;;;;;;28.03;17.30;;;;;;;9.12;58.47;98574.83;125554;1104;103062;-72
2021/05/01 02:02:58;;;;;;;29.67;16.90;;;;;;;9.09;58.84;98576.75;125531;1104;103083;-69
2021/05/01 02:05:25;;;;;;;29.60;17.33;;;;;;;9.08;58.72;98572.41;125576;1096;102918;-70
2021/05/01 02:07:53;;;;;;;30.67;17.93;;;;;;;9.04;58.57;98575.41;125555;1104;103489;-70
2021/05/01 02:10:20;;;;;;;30.30;17.00;;;;;;;8.99;58.83;98575.73;125564;1104;102991;-69
2021/05/01 02:12:48;;;;;;;31.13;18.07;;;;;;;8.98;58.81;98582.00;125600;1104;103452;-69
2021/05/01 02:15:20;;;;;;;30.10;17.03;;;;;;;8.97;58.91;98579.48;125580;1096;102997;-71
2021/05/01 02:17:53;;;;;;;30.77;18.33;;;;;;;8.96;58.65;98583.95;125581;1104;103016;-70
2021/05/01 02:20:28;;;;;;;29.90;17.73;;;;;;;8.94;58.69;98585.87;125532;1104;103069;-70
2021/05/01 02:22:57;;;;;;;30.77;17.20;;;;;;;8.93;58.96;98578.87;125576;1104;103106;-72
2021/05/01 02:25:31;;;;;;;31.03;18.57;;;;;;;8.92;58.89;98580.66;125548;1104;103118;-72
2021/05/01 02:28:02;;;;;;;31.10;17.93;;;;;;;8.91;58.90;98581.62;125603;1104;103566;-71
2021/05/01 02:30:34;;;;;;;29.70;18.13;;;;;;;8.91;58.98;98572.83;125697;1104;103123;-71
2021/05/01 02:33:01;;;;;;;29.33;16.60;;;;;;;8.89;59.08;98572.92;125558;1104;103008;-71
2021/05/01 02:35:38;;;;;;;28.23;17.03;;;;;;;8.89;59.06;98588.84;125642;1104;103016;-71
2021/05/01 02:38:10;;;;;;;29.40;17.63;;;;;;;8.90;59.19;98581.75;125622;1104;103107;-71
2021/05/01 02:40:41;;;;;;;31.60;17.37;;;;;;;8.89;59.17;98580.88;125596;1096;102987;-71
2021/05/01 02:43:13;;;;;;;31.13;18.00;;;;;;;8.89;58.76;98572.92;125595;1104;103074;-70
2021/05/01 02:45:41;;;;;;;27.00;16.77;;;;;;;8.90;59.05;98577.27;125591;1096;103062;-71
2021/05/01 02:48:12;;;;;;;28.27;16.17;;;;;;;8.92;59.29;98577.17;125655;1096;103012;-71
2021/05/01 02:50:43;;;;;;;28.00;16.25;;;;;;;8.92;58.78;98585.13;125591;1096;103157;-71
2021/05/01 02:53:11;;;;;;;28.27;16.43;;;;;;;8.93;58.94;98581.52;125575;1104;103011;-70
2021/05/01 02:55:42;;;;;;;28.90;17.20;;;;;;;8.94;59.35;98583.22;125590;1104;103069;-70
2021/05/01 02:58:09;;;;;;;32.40;17.43;;;;;;;8.94;59.11;98581.39;125538;1104;103017;-72
2021/05/01 03:00:44;;;;;;;31.13;17.93;;;;;;;8.94;59.36;98585.87;125615;1104;103063;-71
2021/05/01 03:03:11;;;;;;;28.00;17.80;;;;;;;8.96;59.15;98583.95;125584;1104;103115;-71
2021/05/01 03:05:39;;;;;;;41.60;18.30;;;;;;;8.99;59.45;98586.34;125561;1104;103069;-70
2021/05/01 03:08:06;;;;;;;28.67;16.80;;;;;;;9.01;59.16;98570.33;125598;1096;102987;-71
2021/05/01 03:10:33;;;;;;;26.97;16.63;;;;;;;9.00;59.14;98568.64;125611;1096;103015;-71
2021/05/01 03:13:01;;;;;;;31.85;16.45;;;;;;;9.02;59.51;98554.29;125614;1104;103030;-71
2021/05/01 03:15:32;;;;;;;30.10;17.40;;;;;;;9.02;59.51;98545.50;125566;1096;104551;-73
2021/05/01 03:17:59;;;;;;;29.85;17.00;;;;;;;8.98;59.47;98550.17;125510;1104;103053;-72
2021/05/01 03:20:30;;;;;;;27.90;16.67;;;;;;;8.93;59.26;98558.48;125634;1096;103678;-72
2021/05/01 03:22:58;;;;;;;28.80;17.40;;;;;;;8.90;59.29;98573.79;126525;1104;103014;-72
2021/05/01 03:25:30;;;;;;;32.07;17.53;;;;;;;8.89;59.40;98557.02;125637;1097;103079;-71
2021/05/01 03:27:57;;;;;;;28.53;17.67;;;;;;;8.87;59.55;98550.97;125502;1104;103062;-71
2021/05/01 03:30:24;;;;;;;29.90;17.87;;;;;;;8.85;59.26;98563.50;125507;1104;103039;-70
2021/05/01 03:32:51;;;;;;;28.43;17.10;;;;;;;8.86;59.70;98556.41;125514;1104;103083;-71
2021/05/01 03:35:22;;;;;;;29.60;16.97;;;;;;;8.88;59.83;98559.80;125553;1104;103093;-70
2021/05/01 03:37:59;;;;;;;28.73;17.10;;;;;;;8.87;59.36;98544.84;125628;1096;103119;-72
2021/05/01 03:40:27;;;;;;;29.33;16.60;;;;;;;8.86;59.47;98540.50;125626;1104;103124;-70
2021/05/01 03:42:54;;;;;;;30.40;17.90;;;;;;;8.83;59.40;98546.86;125640;1096;103058;-71
2021/05/01 03:45:21;;;;;;;30.23;17.90;;;;;;;8.86;59.55;98548.45;125583;1104;102984;-71
2021/05/01 03:47:52;;;;;;;28.93;16.60;;;;;;;8.87;59.50;98544.84;125591;1096;103103;-70
2021/05/01 03:50:23;;;;;;;28.17;17.77;;;;;;;8.87;59.84;98556.28;125607;1096;102990;-70
2021/05/01 03:52:50;;;;;;;27.50;17.00;;;;;;;8.89;59.62;98564.14;125568;1104;103128;-71
2021/05/01 03:55:18;;;;;;;31.70;17.75;;;;;;;8.86;59.39;98582.93;125542;1104;103007;-70
2021/05/01 03:57:55;;;;;;;28.87;17.07;;;;;;;8.74;59.76;98595.28;125557;1096;103521;-71
2021/05/01 04:00:26;;;;;;;28.53;17.10;;;;;;;8.71;59.90;98587.55;125578;1104;103131;-71
2021/05/01 04:02:53;;;;;;;36.95;18.05;;;;;;;8.74;59.68;98582.03;125569;1104;103083;-72
2021/05/01 04:05:24;;;;;;;29.17;16.63;;;;;;;8.80;59.83;98573.59;125571;1104;103196;-73
2021/05/01 04:07:52;;;;;;;28.03;16.07;;;;;;;8.85;60.03;98563.50;125588;1104;102996;-72
2021/05/01 04:10:23;;;;;;;27.20;16.40;;;;;;;8.88;59.94;98562.45;125572;1104;102988;-71
2021/05/01 04:12:53;;;;;;;28.00;16.53;;;;;;;8.92;59.92;98561.27;125504;1104;103142;-72
2021/05/01 04:15:21;;;;;;;32.30;17.47;;;;;;;8.96;60.00;98572.48;125595;1104;102988;-71
2021/05/01 04:17:48;;;;;;;29.20;16.50;;;;;;;9.01;60.19;98570.33;125595;1096;103106;-71
2021/05/01 04:20:16;;;;;;;28.33;16.83;;;;;;;9.05;60.36;98561.19;125550;1096;103135;-71
2021/05/01 04:22:49;;;;;;;30.50;16.57;;;;;;;9.08;60.06;98560.97;125542;1096;103260;-70
2021/05/01 04:25:17;;;;;;;28.60;17.43;;;;;;;9.11;60.45;98565.18;125654;1104;103100;-69
2021/05/01 04:27:44;;;;;;;30.60;17.47;;;;;;;9.13;60.23;98557.95;125635;1096;103498;-70
2021/05/01 04:30:13;;;;;;;31.57;17.83;;;;;;;9.15;60.24;98561.34;125595;1104;103009;-71
2021/05/01 04:32:44;;;;;;;32.70;18.60;;;;;;;9.16;60.28;98563.89;125554;1104;103432;-70
2021/05/01 04:35:14;;;;;;;29.80;17.80;;;;;;;9.19;60.43;98568.11;125551;1104;103013;-74
2021/05/01 04:37:42;;;;;;;31.70;18.33;;;;;;;9.11;60.29;98567.84;125591;1104;102976;-70
2021/05/01 04:40:11;;;;;;;31.93;18.47;;;;;;;9.03;60.12;98574.55;125588;1096;103016;-71
2021/05/01 04:42:47;;;;;;;32.07;18.60;;;;;;;8.96;60.16;98573.34;125837;1096;103080;-71
2021/05/01 04:45:22;;;;;;;31.43;19.47;;;;;;;8.93;60.29;98578.87;125533;1104;102983;-71
2021/05/01 04:47:53;;;;;;;31.97;18.83;;;;;;;8.90;60.42;98576.44;125556;1104;103043;-71
2021/05/01 04:50:25;;;;;;;31.50;20.63;;;;;;;8.88;60.28;98575.70;125540;1104;103173;-70
2021/05/01 04:52:53;;;;;;;34.07;20.80;;;;;;;8.91;60.40;98567.53;125599;1104;102994;-71
2021/05/01 04:55:21;;;;;;;32.10;20.13;;;;;;;8.98;60.56;98559.95;125638;1096;103109;-70
2021/05/01 04:57:53;;;;;;;33.47;20.73;;;;;;;9.04;60.96;98554.19;125505;1096;102991;-69
2021/05/01 05:00:26;;;;;;;31.13;20.67;;;;;;;9.08;60.83;98545.05;125602;1096;103091;-71
2021/05/01 05:02:53;;;;;;;35.80;20.20;;;;;;;9.12;60.96;98537.69;125522;1096;103084;-71
2021/05/01 05:05:20;;;;;;;36.00;21.33;;;;;;;9.14;60.83;98533.11;125547;1096;103081;-71
2021/05/01 05:07:48;;;;;;;32.05;20.45;;;;;;;9.16;60.94;98547.11;125533;1098;103140;-70
2021/05/01 05:10:17;;;;;;;35.83;21.03;;;;;;;9.18;60.91;98553.16;125517;1104;103085;-70
2021/05/01 05:12:48;;;;;;;33.17;21.27;;;;;;;9.20;61.00;98552.06;125585;1096;103496;-70
2021/05/01 05:15:16;;;;;;;33.63;22.40;;;;;;;9.23;61.48;98572.23;125570;1096;102981;-70
2021/05/01 05:17:43;;;;;;;35.77;23.07;;;;;;;9.22;61.36;98581.16;125593;1096;103106;-70
2021/05/01 05:20:11;;;;;;;34.90;21.65;;;;;;;9.23;61.51;98566.92;125586;1104;103058;-70
2021/05/01 05:22:39;;;;;;;35.97;22.10;;;;;;;9.24;61.39;98539.42;125502;1104;102976;-69
2021/05/01 05:25:10;;;;;;;33.50;21.63;;;;;;;9.27;61.39;98555.12;125589;1096;103146;-72
2021/05/01 05:27:37;;;;;;;33.97;20.73;;;;;;;9.26;61.20;98558.73;125565;1104;103077;-70
2021/05/01 05:30:06;;;;;;;34.83;21.23;;;;;;;9.29;61.26;98568.26;125556;1104;102984;-70
2021/05/01 05:32:33;;;;;;;36.33;23.17;;;;;;;9.30;61.69;98565.50;125533;1104;103004;-71
2021/05/01 05:35:01;;;;;;;35.67;23.10;;;;;;;9.33;61.59;98567.06;125506;1104;103080;-71
2021/05/01 05:37:28;;;;;;;36.65;22.65;;;;;;;9.37;61.87;98560.56;125570;1096;103006;-69
2021/05/01 05:39:57;;;;;;;35.80;22.70;;;;;;;9.40;61.63;98555.03;125635;1096;102973;-71
2021/05/01 05:42:24;;;;;;;38.73;24.57;;;;;;;9.42;61.48;98558.41;125571;1104;102984;-70
2021/05/01 05:44:52;;;;;;;34.33;23.40;;;;;;;9.46;61.59;98551.05;125557;1096;103435;-71
2021/05/01 05:47:20;;;;;;;34.73;22.07;;;;;;;9.47;61.71;98539.47;125491;1104;103006;-70
2021/05/01 05:49:48;;;;;;;36.57;24.63;;;;;;;9.51;62.06;98540.92;125551;1096;103117;-70
2021/05/01 05:52:15;;;;;;;38.53;27.87;;;;;;;9.53;61.91;98539.86;125576;1096;103081;-69
2021/05/01 05:54:43;;;;;;;50.33;33.57;;;;;;;9.55;62.14;98544.21;125612;1096;102984;-68
2021/05/01 05:57:12;;;;;;;41.80;30.90;;;;;;;9.56;62.14;98544.08;125608;1104;103094;-69
2021/05/01 05:59:44;;;;;;;43.10;30.73;;;;;;;9.57;62.09;98548.42;125488;1104;103121;-68
2021/05/01 06:02:16;;;;;;;43.67;30.23;;;;;;;9.59;61.98;98551.80;125450;1104;103570;-69
2021/05/01 06:05:02;;;;;;;40.80;29.25;;;;;;;9.60;62.15;98548.19;125420;1104;102981;-72
2021/05/01 06:07:43;;;;;;;45.60;30.33;;;;;;;9.62;62.27;98551.57;125527;1096;103071;-70
2021/05/01 06:10:12;;;;;;;40.90;30.10;;;;;;;9.64;62.15;98541.68;125580;1104;102987;-71
2021/05/01 06:12:42;;;;;;;40.87;28.17;;;;;;;9.66;62.27;98536.23;125620;1104;103077;-70
2021/05/01 06:15:15;;;;;;;40.30;27.57;;;;;;;9.65;62.45;98538.06;125496;1100;103020;-70
2021/05/01 06:17:45;;;;;;;40.73;27.40;;;;;;;9.66;62.48;98523.82;125479;1104;102987;-74
2021/05/01 06:20:14;;;;;;;36.63;26.67;;;;;;;9.67;62.72;98520.20;125603;1096;103080;-73
2021/05/01 06:22:41;;;;;;;38.67;27.13;;;;;;;9.68;62.42;98523.69;125956;1104;103668;-74
2021/05/01 06:25:13;;;;;;;42.73;27.60;;;;;;;9.71;62.73;98519.97;125515;1104;103013;-74
2021/05/01 06:27:40;;;;;;;40.73;26.20;;;;;;;9.71;62.42;98520.80;125988;1104;102984;-71
2021/05/01 06:30:12;;;;;;;41.60;27.63;;;;;;;9.66;62.53;98520.30;125526;1104;103043;-69
2021/05/01 06:32:50;;;;;;;40.37;28.70;;;;;;;9.63;62.50;98518.75;125491;1096;103090;-70
2021/05/01 06:35:18;;;;;;;39.80;27.70;;;;;;;9.66;62.93;98515.85;125600;1104;102978;-70
2021/05/01 06:37:50;;;;;;;41.70;26.97;;;;;;;9.68;62.66;98500.65;125550;1104;103142;-71
2021/05/01 06:40:21;;;;;;;43.27;28.27;;;;;;;9.70;62.82;98499.69;125531;1104;103126;-70
2021/05/01 06:43:00;;;;;;;42.23;29.47;;;;;;;9.74;62.81;98495.83;125446;1104;103053;-69
2021/05/01 06:45:30;;;;;;;41.80;28.00;;;;;;;9.73;62.78;98497.62;125573;1104;103009;-68
2021/05/01 06:48:04;;;;;;;44.07;28.53;;;;;;;9.71;62.79;98507.52;125434;1104;103544;-71
2021/05/01 06:50:37;;;;;;;44.23;29.47;;;;;;;9.74;63.07;98509.94;125499;1104;103044;-71
2021/05/01 06:53:05;;;;;;;43.80;28.90;;;;;;;9.78;62.93;98506.08;125616;1104;103042;-70
2021/05/01 06:55:37;;;;;;;42.03;28.93;;;;;;;9.83;63.25;98506.56;125608;1104;103059;-70
2021/05/01 06:58:08;;;;;;;41.63;28.40;;;;;;;9.92;63.12;98502.33;125525;1104;103164;-71
2021/05/01 07:00:36;;;;;;;44.73;31.60;;;;;;;10.03;63.46;98500.64;125535;1104;102997;-70
2021/05/01 07:03:09;;;;;;;45.73;32.10;;;;;;;10.11;63.20;98504.36;125407;1104;102979;-70
2021/05/01 07:05:37;;;;;;;46.85;32.03;;;;;;;10.18;63.52;98511.84;125608;1104;103077;-71
2021/05/01 07:08:06;;;;;;;42.37;29.97;;;;;;;10.22;63.48;98538.05;125493;1104;102995;-69
2021/05/01 07:10:34;;;;;;;41.77;28.30;;;;;;;10.27;63.39;98540.36;126453;1096;101163;-69
2021/05/01 07:13:04;;;;;;;45.10;30.70;;;;;;;10.31;63.49;98549.78;125507;1104;103008;-71
2021/05/01 07:15:31;;;;;;;42.13;28.57;;;;;;;10.33;63.60;98545.19;125545;1104;103014;-74
2021/05/01 07:17:59;;;;;;;43.47;29.53;;;;;;;10.37;63.43;98543.11;125497;1097;102984;-74
2021/05/01 07:20:26;;;;;;;43.43;29.80;;;;;;;10.39;63.55;98535.89;125543;1104;103107;-73
2021/05/01 07:22:55;;;;;;;42.77;31.93;;;;;;;10.39;63.70;98520.77;125570;1104;103010;-75
2021/05/01 07:25:26;;;;;;;44.50;31.07;;;;;;;10.40;63.71;98513.66;125595;1104;103444;-74
2021/05/01 07:28:05;;;;;;;41.37;29.00;;;;;;;10.40;63.75;98501.19;125560;1096;103012;-74
2021/05/01 07:30:42;;;;;;;66.17;38.70;;;;;;;10.39;63.52;98488.86;125711;1104;103038;-74
2021/05/01 07:33:27;;;;;;;46.60;29.67;;;;;;;10.35;63.71;98499.85;125565;1096;103107;-77
2021/05/01 07:35:56;;;;;;;40.00;28.67;;;;;;;10.30;63.92;98499.38;125518;1104;103117;-76
2021/05/01 07:38:24;;;;;;;41.80;28.33;;;;;;;10.30;63.86;98505.55;125523;1096;102972;-75
2021/05/01 07:40:53;;;;;;;43.13;29.87;;;;;;;10.31;63.95;98512.56;125503;1096;103128;-79
2021/05/01 07:43:23;;;;;;;39.67;27.80;;;;;;;10.32;63.97;98518.70;126074;1104;103016;-79
2021/05/01 07:45:54;;;;;;;42.00;29.85;;;;;;;10.33;63.98;98531.03;125551;1096;103456;-76
2021/05/01 07:48:22;;;;;;;43.90;31.23;;;;;;;10.34;63.98;98538.03;125571;1096;103008;-78
2021/05/01 07:50:50;;;;;;;47.93;31.57;;;;;;;10.35;63.94;98537.94;125867;1104;103245;-84
2021/05/01 07:53:18;;;;;;;46.37;31.43;;;;;;;10.37;63.94;98521.84;125903;1104;103075;-76
2021/05/01 07:55:45;;;;;;;43.10;31.23;;;;;;;10.38;64.05;98512.90;125515;1104;103067;-75
2021/05/01 07:58:14;;;;;;;46.17;30.43;;;;;;;10.39;64.24;98504.81;125533;1104;103004;-76
2021/05/01 08:00:44;;;;;;;54.00;35.73;;;;;;;10.39;64.17;98493.36;125895;1104;102981;-81
2021/05/01 08:03:16;;;;;;;47.77;32.70;;;;;;;10.36;64.26;98491.77;125863;1104;103078;-81
2021/05/01 08:05:44;;;;;;;45.53;31.63;;;;;;;10.34;64.12;98498.16;126042;1104;102997;-83
2021/05/01 08:08:11;;;;;;;46.63;30.50;;;;;;;10.33;64.23;98505.31;125721;1104;103565;-77
2021/05/01 08:10:39;;;;;;;45.10;30.93;;;;;;;10.33;64.39;98504.45;125524;1096;103004;-79
2021/05/01 08:13:06;;;;;;;46.20;31.30;;;;;;;10.31;64.37;98509.05;125762;1104;103126;-77
2021/05/01 08:15:34;;;;;;;44.20;30.25;;;;;;;10.28;64.56;98510.98;125532;1097;103013;-76
2021/05/01 08:18:02;;;;;;;43.77;32.00;;;;;;;10.32;64.51;98529.34;125562;1104;103011;-78
2021/05/01 08:20:30;;;;;;;48.67;32.87;;;;;;;10.34;64.48;98533.58;125555;1104;102982;-76
2021/05/01 08:22:57;;;;;;;44.87;31.10;;;;;;;10.35;64.52;98519.32;125532;1104;103105;-83
2021/05/01 08:25:26;;;;;;;45.77;31.00;;;;;;;10.37;64.59;98512.07;125900;1104;101268;-79
2021/05/01 08:27:54;;;;;;;44.57;31.50;;;;;;;10.39;64.74;98509.30;125872;1104;103077;-79
2021/05/01 08:30:22;;;;;;;47.13;32.10;;;;;;;10.41;64.71;98518.00;125534;1096;103262;-78
2021/05/01 08:32:50;;;;;;;48.13;34.90;;;;;;;10.43;64.69;98516.89;125589;1104;103016;-81
2021/05/01 08:35:19;;;;;;;45.17;31.90;;;;;;;10.45;64.67;98524.77;125515;1104;103100;-75
2021/05/01 08:37:48;;;;;;;44.47;31.50;;;;;;;10.47;64.84;98521.97;125578;1096;102984;-78
2021/05/01 08:40:16;;;;;;;49.73;34.93;;;;;;;10.47;64.74;98522.83;125872;1104;103056;-78
2021/05/01 08:42:46;;;;;;;53.83;38.57;;;;;;;10.50;65.07;98519.06;125389;1104;103062;-77
2021/05/01 08:45:17;;;;;;;69.35;54.10;;;;;;;10.52;64.91;98520.64;125270;1104;103155;-77
2021/05/01 08:47:49;;;;;;;54.30;38.70;;;;;;;10.55;64.95;98517.73;125427;1104;103081;-75
2021/05/01 08:50:30;;;;;;;45.83;34.00;;;;;;;10.60;64.92;98522.67;125544;1096;103128;-76
2021/05/01 08:53:02;;;;;;;46.87;35.83;;;;;;;10.63;65.14;98522.42;125548;1104;102953;-77
2021/05/01 08:55:35;;;;;;;45.23;32.37;;;;;;;10.69;65.06;98515.74;125910;1104;103061;-80
2021/05/01 08:58:06;;;;;;;46.13;33.37;;;;;;;10.75;65.16;98515.24;125952;1096;103291;-73
2021/05/01 09:00:37;;;;;;;48.30;35.60;;;;;;;10.84;65.07;98508.31;125496;1096;103096;-73
2021/05/01 09:03:08;;;;;;;50.17;36.03;;;;;;;10.96;65.07;98512.62;125480;1104;103008;-73
2021/05/01 09:05:38;;;;;;;46.17;34.90;;;;;;;11.13;65.29;98507.71;125555;1104;103106;-73
2021/05/01 09:08:11;;;;;;;51.97;37.40;;;;;;;11.36;65.25;98497.78;125560;1096;103066;-75
2021/05/01 09:10:49;;;;;;;47.20;34.10;;;;;;;11.56;65.30;98504.06;125555;1096;103056;-76
2021/05/01 09:13:27;;;;;;;45.63;33.07;;;;;;;11.73;65.33;98501.74;125511;1104;103258;-80
2021/05/01 09:16:09;;;;;;;44.70;32.40;;;;;;;11.81;65.39;98499.27;125605;1104;103444;-73
2021/05/01 09:18:53;;;;;;;47.33;32.30;;;;;;;11.91;65.42;98501.95;125670;1104;103084;-76
2021/05/01 09:21:25;;;;;;;44.33;30.90;;;;;;;12.01;65.50;98494.05;125463;1104;102815;-75
2021/05/01 09:23:54;;;;;;;41.60;30.75;;;;;;;12.24;65.34;98483.16;125504;1104;103123;-77
2021/05/01 09:26:40;;;;;;;38.53;28.53;;;;;;;12.51;65.21;98470.00;125691;1104;103120;-78
2021/05/01 09:29:31;;;;;;;44.15;33.35;;;;;;;12.90;65.39;98463.84;125515;1104;103557;-73
2021/05/01 09:32:02;;;;;;;42.10;30.90;;;;;;;13.24;65.26;98462.55;125350;1104;103148;-74
2021/05/01 09:34:50;;;;;;;41.20;31.83;;;;;;;13.59;65.46;98452.20;125377;1096;103095;-74
2021/05/01 09:37:21;;;;;;;45.10;33.03;;;;;;;13.86;65.65;98466.61;125256;1096;102975;-77
2021/05/01 09:39:54;;;;;;;43.30;32.60;;;;;;;14.03;65.78;98467.64;125464;1104;102995;-69
2021/05/01 09:42:27;;;;;;;43.75;31.15;;;;;;;14.10;65.68;98461.55;125475;1104;103055;-72
2021/05/01 09:45:27;;;;;;;40.43;31.23;;;;;;;14.16;65.50;98457.42;125482;1104;103103;-74
2021/05/01 09:47:55;;;;;;;46.13;34.43;;;;;;;14.26;65.66;98457.38;125378;1096;103153;-75
2021/05/01 09:50:28;;;;;;;43.10;33.00;;;;;;;14.33;65.47;98457.61;125309;1096;103084;-71
2021/05/01 09:53:05;;;;;;;43.13;33.00;;;;;;;14.35;65.53;98455.63;126453;1104;102987;-81
2021/05/01 09:55:47;;;;;;;44.30;35.63;;;;;;;14.41;65.50;98458.53;125328;1096;102987;-77
2021/05/01 09:58:16;;;;;;;42.10;33.17;;;;;;;14.42;65.52;98464.74;125323;1104;101938;-69
2021/05/01 10:00:44;;;;;;;41.57;31.90;;;;;;;14.53;65.54;98461.00;125111;1096;103150;-69
2021/05/01 10:03:38;;;;;;;41.00;31.43;;;;;;;14.58;65.66;98461.38;125306;1104;103000;-71
2021/05/01 10:06:15;;;;;;;39.63;31.40;;;;;;;14.64;65.52;98449.22;125367;1104;103123;-70
2021/05/01 10:08:42;;;;;;;41.93;33.60;;;;;;;14.79;65.61;98454.91;125406;1096;102980;-73
2021/05/01 10:11:13;;;;;;;39.97;30.03;;;;;;;15.02;65.69;98455.27;125399;1096;103078;-73
2021/05/01 10:13:53;;;;;;;35.57;26.17;;;;;;;15.14;65.74;98445.13;125558;1104;103013;-75
2021/05/01 10:16:25;;;;;;;32.90;23.47;;;;;;;15.30;65.81;98442.58;125459;1104;102974;-72
2021/05/01 10:19:09;;;;;;;39.03;27.63;;;;;;;15.49;65.55;98446.02;125400;1104;102981;-69
2021/05/01 10:21:41;;;;;;;32.75;24.40;;;;;;;15.61;65.59;98450.13;125470;1104;103081;-71
2021/05/01 10:24:11;;;;;;;34.23;25.20;;;;;;;15.71;65.77;98454.53;125430;1104;103134;-69
2021/05/01 10:26:49;;;;;;;33.50;24.13;;;;;;;15.85;65.80;98459.31;125537;1104;103103;-72
2021/05/01 10:29:32;;;;;;;35.50;26.00;;;;;;;15.99;65.64;98449.84;125452;1104;102984;-75
2021/05/01 10:32:00;;;;;;;33.80;24.15;;;;;;;16.20;65.80;98454.78;125492;1104;103096;-73
2021/05/01 10:34:33;;;;;;;35.13;24.70;;;;;;;16.43;66.04;98446.09;125466;1104;103064;-76
2021/05/01 10:37:05;;;;;;;33.70;23.67;;;;;;;16.61;65.89;98453.19;125527;1096;102373;-73
2021/05/01 10:39:43;;;;;;;33.60;25.40;;;;;;;16.76;65.75;98448.82;125491;1104;102956;-76
2021/05/01 10:42:14;;;;;;;38.70;28.47;;;;;;;16.80;65.62;98455.55;125442;1104;102931;-73
2021/05/01 10:44:54;;;;;;;35.57;25.97;;;;;;;16.91;65.76;98450.85;125382;1104;103087;-77
2021/05/01 10:47:22;;;;;;;34.93;24.97;;;;;;;16.99;65.58;98448.20;125390;1104;103027;-74
2021/05/01 10:50:18;;;;;;;35.77;25.53;;;;;;;17.16;65.51;98445.48;125377;1104;104070;-74
2021/05/01 10:52:48;;;;;;;32.43;24.43;;;;;;;17.27;65.74;98455.91;125302;1104;103019;-78
2021/05/01 10:55:15;;;;;;;35.13;25.07;;;;;;;17.32;65.72;98448.17;125369;1104;103088;-76
2021/05/01 10:57:56;;;;;;;33.93;23.80;;;;;;;17.39;65.70;98446.48;125390;1098;103169;-76
2021/05/01 11:00:25;;;;;;;31.40;23.05;;;;;;;17.43;65.83;98440.77;125535;1104;101953;-72
2021/05/01 11:03:00;;;;;;;31.70;22.80;;;;;;;17.44;65.71;98431.69;125720;1104;103076;-73
2021/05/01 11:05:32;;;;;;;31.63;22.00;;;;;;;17.43;65.53;98430.02;125510;1103;103016;-75
2021/05/01 11:08:08;;;;;;;32.33;23.20;;;;;;;17.39;65.64;98435.73;125595;1096;103027;-74
2021/05/01 11:10:37;;;;;;;33.27;23.40;;;;;;;17.45;65.67;98433.38;125529;1104;103059;-73
2021/05/01 11:13:06;;;;;;;31.27;22.07;;;;;;;17.54;65.81;98427.80;125570;1096;102990;-77
2021/05/01 11:15:50;;;;;;;33.80;23.43;;;;;;;17.60;65.89;98425.43;125575;1096;103135;-77
2021/05/01 11:18:21;;;;;;;31.90;22.70;;;;;;;17.60;65.73;98426.25;125484;1096;102988;-77
2021/05/01 11:20:52;;;;;;;31.77;23.57;;;;;;;17.70;65.53;98415.32;125594;1104;102987;-70
2021/05/01 11:23:25;;;;;;;34.03;23.77;;;;;;;17.85;65.98;98421.63;125584;1096;103169;-82